Time;durP1;ratioP1;P1;durP2;ratioP2;P2;SDS_P1;SDS_P2;PMS_P1;PMS_P2;Temp;Humidity;BMP_temperature;BMP_pressure;BME280_temperature;BME280_humidity;BME280_pressure;Samples;Min_cycle;Max_cycle;Signal;HPM_P1;HPM_P2
2022/01/18 00:01:16;;;;;;;22.70;12.18;;;;;;;16.81;60.73;99751.28;3178320;27;20489;-52
2022/01/18 00:02:48;;;;;;;26.83;12.13;;;;;;;16.79;60.58;99750.63;3179788;27;20051;-50
2022/01/18 00:04:21;;;;;;;24.55;10.73;;;;;;;16.78;60.78;99749.78;3170035;27;20122;-50
2022/01/18 00:05:55;;;;;;;24.95;11.60;;;;;;;16.78;60.76;99754.31;3179306;27;20062;-53
2022/01/18 00:07:26;;;;;;;24.23;11.48;;;;;;;16.76;60.74;99762.47;3176442;27;20043;-54
2022/01/18 00:08:58;;;;;;;22.83;11.48;;;;;;;16.74;60.80;99765.31;3179955;27;20062;-53
2022/01/18 00:10:32;;;;;;;28.92;13.30;;;;;;;16.74;60.77;99759.09;3178266;27;20100;-55
2022/01/18 00:12:27;;;;;;;23.55;12.50;;;;;;;16.72;60.85;99763.81;3177367;27;20051;-54
2022/01/18 00:14:03;;;;;;;27.48;12.20;;;;;;;16.69;60.80;99759.63;3178609;27;20053;-54
2022/01/18 00:15:43;;;;;;;22.23;11.23;;;;;;;16.69;60.76;99769.50;3176890;27;20099;-53
2022/01/18 00:17:24;;;;;;;21.65;11.63;;;;;;;16.68;60.92;99771.31;3178302;27;20051;-55
2022/01/18 00:19:00;;;;;;;24.52;10.75;;;;;;;16.66;60.78;99762.63;3179451;27;20157;-51
2022/01/18 00:20:41;;;;;;;21.23;11.80;;;;;;;16.66;60.82;99767.13;3170472;27;20417;-51
2022/01/18 00:22:15;;;;;;;29.77;12.18;;;;;;;16.65;60.81;99768.97;3176732;27;20142;-54
2022/01/18 00:23:50;;;;;;;21.48;12.23;;;;;;;16.63;60.91;99770.13;3179357;27;20047;-53
2022/01/18 00:25:22;;;;;;;27.35;11.00;;;;;;;16.62;60.92;99771.97;3178001;27;20103;-54
2022/01/18 00:26:54;;;;;;;27.52;12.80;;;;;;;16.61;60.88;99775.66;3173314;27;20995;-55
2022/01/18 00:28:28;;;;;;;25.55;11.73;;;;;;;16.60;60.79;99765.94;3176082;27;20092;-51
2022/01/18 00:30:12;;;;;;;28.02;13.00;;;;;;;16.59;60.81;99772.28;3177276;27;20054;-52
2022/01/18 00:31:59;;;;;;;22.92;12.73;;;;;;;16.59;60.96;99777.66;3178375;27;20046;-53
2022/01/18 00:33:43;;;;;;;23.77;12.88;;;;;;;16.56;60.98;99783.34;3178185;27;20059;-52
2022/01/18 00:35:16;;;;;;;27.90;12.25;;;;;;;16.55;60.94;99773.63;3175934;27;20069;-54
2022/01/18 00:38:46;;;;;;;31.27;11.70;;;;;;;16.52;60.95;99771.28;3160427;27;20050;-48
2022/01/18 00:40:18;;;;;;;23.67;11.20;;;;;;;16.50;60.94;99776.78;3178876;27;20043;-54
2022/01/18 00:41:50;;;;;;;24.10;11.90;;;;;;;16.49;60.96;99777.81;3179308;27;20043;-51
2022/01/18 01:00:31;;;;;;;25.98;12.05;;;;;;;16.35;61.03;99802.50;3170544;27;20044;-50
2022/01/18 01:02:04;;;;;;;22.38;11.70;;;;;;;16.35;61.15;99812.38;3177825;27;20645;-51
2022/01/18 01:03:36;;;;;;;21.65;11.63;;;;;;;16.33;61.24;99814.38;3174192;27;20059;-53
2022/01/18 01:05:11;;;;;;;22.00;11.15;;;;;;;16.30;61.18;99807.50;3176423;27;20043;-54
2022/01/18 01:06:43;;;;;;;21.23;12.63;;;;;;;16.29;61.16;99811.16;3177981;27;20051;-54
2022/01/18 01:08:15;;;;;;;27.80;14.20;;;;;;;16.27;61.22;99816.69;3178672;27;20043;-47
2022/01/18 01:09:50;;;;;;;26.75;11.95;;;;;;;16.27;61.08;99806.00;3175826;27;20056;-49
2022/01/18 01:11:22;;;;;;;21.00;12.63;;;;;;;16.25;61.18;99818.69;3176336;27;20054;-54
2022/01/18 01:12:56;;;;;;;25.08;10.88;;;;;;;16.25;61.27;99816.00;3178731;27;20051;-54
2022/01/18 01:14:29;;;;;;;21.65;11.88;;;;;;;16.25;61.00;99813.34;3177635;27;20051;-52
2022/01/18 01:16:20;;;;;;;21.60;12.27;;;;;;;16.22;61.18;99807.47;3177862;27;20051;-54
2022/01/18 01:18:07;;;;;;;26.17;12.25;;;;;;;16.21;61.28;99805.78;3177745;27;20061;-52
2022/01/18 01:31:57;;;;;;;27.60;11.95;;;;;;;16.20;61.39;99817.50;3176451;27;20047;-53
2022/01/18 01:34:40;;;;;;;20.07;11.50;;;;;;;16.08;61.27;99828.47;3175998;27;20058;-54
2022/01/18 01:36:30;;;;;;;31.73;12.00;;;;;;;16.07;61.26;99832.16;3177530;27;20054;-55
2022/01/18 01:43:49;;;;;;;30.27;12.38;;;;;;;16.03;61.40;99836.13;3172726;27;20058;-48
2022/01/18 01:45:23;;;;;;;21.85;13.70;;;;;;;16.01;61.44;99837.28;3175138;27;20575;-50
2022/01/18 01:46:55;;;;;;;24.65;12.27;;;;;;;16.01;61.46;99842.63;3175746;27;20500;-51
2022/01/18 01:48:28;;;;;;;19.90;11.80;;;;;;;15.99;61.50;99833.91;3173154;27;20042;-52
2022/01/18 01:50:01;;;;;;;22.65;11.50;;;;;;;15.98;61.51;99837.59;3176038;27;20043;-53
2022/01/18 01:51:34;;;;;;;24.73;12.23;;;;;;;15.96;61.40;99839.56;3174797;27;20497;-48
2022/01/18 01:53:06;;;;;;;23.52;11.98;;;;;;;15.96;61.46;99834.22;3175223;27;20494;-54
2022/01/18 01:54:39;;;;;;;23.42;12.38;;;;;;;15.96;61.40;99839.56;3174183;27;20096;-51
2022/01/18 01:56:14;;;;;;;24.25;11.80;;;;;;;15.93;61.58;99839.91;3176835;27;20046;-53
2022/01/18 01:57:49;;;;;;;22.85;12.23;;;;;;;15.92;61.61;99833.72;3177898;27;20043;-53
2022/01/18 01:59:20;;;;;;;20.13;11.30;;;;;;;15.93;61.59;99834.53;3175300;27;20047;-50
2022/01/18 02:00:55;;;;;;;23.35;13.07;;;;;;;15.91;61.52;99828.50;3176580;27;20552;-53
2022/01/18 02:02:30;;;;;;;21.17;11.25;;;;;;;15.90;61.43;99822.31;3166886;27;20091;-50
2022/01/18 02:04:06;;;;;;;23.17;11.13;;;;;;;15.88;61.59;99832.34;3177008;27;20051;-50
2022/01/18 02:05:40;;;;;;;21.55;11.10;;;;;;;15.88;61.39;99820.78;3176059;27;20043;-54
2022/01/18 02:07:15;;;;;;;19.10;11.25;;;;;;;15.86;61.76;99816.44;3174313;27;20035;-50
2022/01/18 02:08:47;;;;;;;21.35;10.95;;;;;;;15.86;61.58;99813.78;3177442;27;20057;-54
2022/01/18 02:10:18;;;;;;;25.55;12.88;;;;;;;15.85;61.43;99827.28;3176651;27;20043;-50
2022/01/18 02:11:51;;;;;;;24.83;12.20;;;;;;;15.83;61.55;99814.09;3173835;27;20063;-52
2022/01/18 02:13:23;;;;;;;26.77;12.15;;;;;;;15.81;61.54;99808.06;3177117;27;20039;-55
2022/01/18 02:14:58;;;;;;;27.83;12.73;;;;;;;15.81;61.50;99805.38;3174955;27;20051;-54
2022/01/18 02:22:07;;;;;;;26.60;13.60;;;;;;;15.77;61.68;99809.38;3177275;27;20497;-51
2022/01/18 02:23:39;;;;;;;22.23;12.10;;;;;;;15.77;61.62;99813.88;3174219;27;20147;-55
2022/01/18 02:25:11;;;;;;;20.77;12.40;;;;;;;15.75;61.54;99819.38;3175967;27;20054;-51
2022/01/18 02:26:43;;;;;;;20.92;11.25;;;;;;;15.75;61.68;99821.22;3178057;27;20046;-51
2022/01/18 02:28:16;;;;;;;19.42;10.20;;;;;;;15.74;61.77;99816.84;3174187;27;20043;-48
2022/01/18 02:29:48;;;;;;;20.98;12.98;;;;;;;15.72;61.68;99819.69;3176356;27;20047;-53
2022/01/18 02:31:19;;;;;;;22.38;11.85;;;;;;;15.71;61.77;99820.69;3166947;27;20799;-54
2022/01/18 02:32:51;;;;;;;20.85;10.70;;;;;;;15.72;61.72;99821.53;3175759;27;20070;-53
2022/01/18 02:34:23;;;;;;;20.42;12.02;;;;;;;15.71;61.80;99814.50;3177287;27;20051;-50
2022/01/18 02:35:57;;;;;;;18.60;10.70;;;;;;;15.69;61.70;99822.69;3175511;27;20125;-53
2022/01/18 02:37:29;;;;;;;21.90;12.13;;;;;;;15.68;61.70;99818.31;3176187;27;20085;-53
2022/01/18 02:39:00;;;;;;;21.27;11.70;;;;;;;15.68;61.88;99820.13;3178355;27;20703;-52
2022/01/18 02:40:33;;;;;;;21.08;12.65;;;;;;;15.69;61.66;99822.69;3171246;27;20122;-50
2022/01/18 02:42:06;;;;;;;27.40;11.60;;;;;;;15.65;61.65;99819.44;3177453;27;20059;-53
2022/01/18 02:43:47;;;;;;;20.02;11.65;;;;;;;15.65;61.64;99822.09;3175384;27;20408;-50
2022/01/18 02:45:18;;;;;;;22.85;12.10;;;;;;;15.64;61.73;99817.75;3170033;27;20054;-50
2022/01/18 02:46:50;;;;;;;24.50;12.30;;;;;;;15.64;61.78;99817.75;3174924;27;20039;-53
2022/01/18 02:48:23;;;;;;;22.30;12.45;;;;;;;15.63;61.76;99815.25;3169180;27;20043;-52
2022/01/18 02:49:56;;;;;;;21.92;11.75;;;;;;;15.64;61.69;99811.56;3173507;27;20062;-51
2022/01/18 02:51:30;;;;;;;19.23;12.05;;;;;;;15.62;61.76;99817.06;3173273;27;20058;-53
2022/01/18 02:53:02;;;;;;;21.45;10.65;;;;;;;15.60;61.82;99820.88;3174847;27;20055;-52
2022/01/18 02:54:34;;;;;;;19.88;11.32;;;;;;;15.60;61.81;99827.09;3175931;27;20043;-50
2022/01/18 02:56:04;;;;;;;18.45;11.13;;;;;;;15.60;61.69;99828.91;3175640;27;20050;-53
2022/01/18 02:57:44;;;;;;;19.80;11.32;;;;;;;15.57;61.79;99823.88;3172555;27;20048;-50
2022/01/18 02:59:25;;;;;;;20.15;11.55;;;;;;;15.57;61.98;99829.22;3174568;27;20039;-49
2022/01/18 03:04:39;;;;;;;18.48;10.73;;;;;;;15.55;61.80;99821.38;3174411;27;19923;-55
2022/01/18 03:06:13;;;;;;;22.50;12.07;;;;;;;15.56;61.75;99822.22;3168698;27;20150;-48
2022/01/18 03:07:46;;;;;;;22.58;12.43;;;;;;;15.53;61.85;99820.69;3172876;27;20047;-53
2022/01/18 03:09:18;;;;;;;23.90;12.20;;;;;;;15.54;61.70;99814.31;3175574;27;20054;-51
2022/01/18 03:10:50;;;;;;;17.92;11.27;;;;;;;15.53;61.80;99817.16;3176711;27;20056;-51
2022/01/18 03:12:22;;;;;;;18.67;10.68;;;;;;;15.51;61.96;99811.13;3174247;27;20055;-52
2022/01/18 03:13:57;;;;;;;26.98;12.60;;;;;;;15.51;61.94;99811.13;3172421;27;20043;-52
2022/01/18 03:15:31;;;;;;;21.75;12.65;;;;;;;15.50;61.74;99812.13;3174285;27;20043;-51
2022/01/18 03:17:03;;;;;;;20.35;11.00;;;;;;;15.49;61.82;99813.13;3175062;27;20047;-49
2022/01/18 03:18:35;;;;;;;24.80;12.57;;;;;;;15.48;61.79;99809.59;3173017;27;20097;-53
2022/01/18 03:20:11;;;;;;;20.70;11.50;;;;;;;15.47;61.85;99817.78;3175388;27;20039;-51
2022/01/18 03:21:51;;;;;;;16.40;10.15;;;;;;;15.47;61.78;99812.44;3174442;27;20134;-51
2022/01/18 03:23:24;;;;;;;20.42;11.32;;;;;;;15.44;61.84;99810.09;3172601;27;20050;-53
2022/01/18 03:25:01;;;;;;;20.45;11.15;;;;;;;15.44;62.06;99813.59;3174243;27;20051;-48
2022/01/18 03:28:03;;;;;;;19.63;10.57;;;;;;;15.42;61.90;99813.72;3175096;27;20045;-52
2022/01/18 03:28:29;;;;;;;18.60;11.05;;;;;;;15.44;61.75;99812.75;3174147;27;20078;-49
2022/01/18 03:30:01;;;;;;;21.95;11.60;;;;;;;15.42;61.88;99807.56;3179006;27;20135;-52
2022/01/18 03:31:33;;;;;;;19.80;12.57;;;;;;;15.41;62.00;99817.41;3172690;27;20099;-52
2022/01/18 03:33:08;;;;;;;18.15;10.80;;;;;;;15.39;61.92;99814.03;3177785;27;20047;-51
2022/01/18 03:34:42;;;;;;;19.35;11.40;;;;;;;15.39;62.16;99821.22;3175018;27;20047;-51
2022/01/18 03:36:14;;;;;;;22.38;11.55;;;;;;;15.38;61.92;99820.41;3175897;27;20039;-52
2022/01/18 03:37:50;;;;;;;20.42;10.93;;;;;;;15.39;62.02;99821.22;3178175;27;20412;-52
2022/01/18 03:39:23;;;;;;;19.48;10.25;;;;;;;15.38;61.91;99823.06;3176094;27;20112;-50
2022/01/18 03:40:55;;;;;;;23.08;11.75;;;;;;;15.37;61.92;99832.06;3176925;27;20054;-50
2022/01/18 03:42:38;;;;;;;20.63;11.45;;;;;;;15.37;62.02;99834.75;3177173;27;20050;-51
2022/01/18 03:44:10;;;;;;;20.15;11.05;;;;;;;15.35;61.75;99834.06;3178178;27;20588;-53
2022/01/18 03:45:44;;;;;;;17.95;10.57;;;;;;;15.35;62.06;99833.22;3177704;27;20039;-52
2022/01/18 03:47:16;;;;;;;18.13;11.18;;;;;;;15.33;61.99;99833.38;3176977;27;20043;-50
2022/01/18 03:48:50;;;;;;;18.98;11.38;;;;;;;15.34;61.73;99845.75;3176219;27;20050;-52
2022/01/18 03:50:22;;;;;;;20.35;11.40;;;;;;;15.34;62.00;99842.22;3177145;27;20521;-52
2022/01/18 03:51:54;;;;;;;23.23;11.35;;;;;;;15.35;62.08;99841.22;3178321;27;20054;-53
2022/01/18 03:53:26;;;;;;;16.67;10.55;;;;;;;15.37;61.97;99845.44;3177514;27;20051;-53
2022/01/18 03:55:00;;;;;;;18.67;11.55;;;;;;;15.38;62.02;99855.16;3178649;27;20051;-52
2022/01/18 03:56:32;;;;;;;20.95;10.40;;;;;;;15.41;62.07;99851.34;3174959;27;20050;-49
2022/01/18 03:58:04;;;;;;;19.88;10.38;;;;;;;15.42;61.91;99858.34;3175317;27;20090;-53
2022/01/18 03:59:35;;;;;;;18.45;11.32;;;;;;;15.42;62.00;99856.50;3177742;27;20047;-49
2022/01/18 04:01:07;;;;;;;17.77;11.10;;;;;;;15.45;61.80;99863.38;3174999;27;20611;-50
2022/01/18 04:02:39;;;;;;;20.08;10.45;;;;;;;15.45;61.85;99857.22;3172360;27;20050;-53
2022/01/18 04:04:11;;;;;;;18.83;10.75;;;;;;;15.46;61.96;99861.53;3176086;27;20054;-51
2022/01/18 04:05:43;;;;;;;18.10;10.57;;;;;;;15.46;61.77;99861.53;3175642;27;20051;-54
2022/01/18 04:07:15;;;;;;;22.13;10.27;;;;;;;15.47;62.01;99847.22;3174450;27;20047;-53
2022/01/18 04:08:47;;;;;;;22.13;11.45;;;;;;;15.48;61.84;99862.25;3173941;27;20418;-51
2022/01/18 04:10:20;;;;;;;17.52;10.80;;;;;;;15.49;61.74;99853.22;3175075;27;20078;-50
2022/01/18 04:11:52;;;;;;;21.10;10.55;;;;;;;15.50;61.92;99860.25;3176931;27;20660;-52
2022/01/18 04:13:24;;;;;;;19.27;11.15;;;;;;;15.50;61.90;99849.56;3176896;27;20050;-51
2022/01/18 04:14:57;;;;;;;21.73;11.18;;;;;;;15.49;62.04;99853.22;3178338;27;20577;-52
2022/01/18 04:16:30;;;;;;;22.00;11.55;;;;;;;15.49;62.01;99854.09;3172359;27;20078;-53
2022/01/18 04:18:21;;;;;;;22.63;10.90;;;;;;;15.50;61.76;99854.91;3176770;27;20043;-54
2022/01/18 04:27:12;;;;;;;16.98;10.77;;;;;;;15.49;61.85;99853.22;3169725;27;20391;-49
2022/01/18 04:28:44;;;;;;;16.45;10.90;;;;;;;15.50;61.80;99854.91;3177431;27;20071;-52
2022/01/18 04:30:16;;;;;;;18.10;10.50;;;;;;;15.49;61.68;99853.22;3175934;27;20542;-52
2022/01/18 04:31:48;;;;;;;18.75;9.13;;;;;;;15.49;61.85;99850.53;3176801;27;20042;-54
2022/01/18 04:33:20;;;;;;;20.17;10.20;;;;;;;15.49;61.75;99853.22;3176788;27;20047;-51
2022/01/18 04:34:52;;;;;;;18.42;9.57;;;;;;;15.48;61.88;99854.22;3176235;27;20499;-54
2022/01/18 04:36:26;;;;;;;19.60;11.15;;;;;;;15.47;61.85;99845.38;3177942;27;20047;-53
2022/01/18 04:37:58;;;;;;;14.68;8.80;;;;;;;15.48;61.82;99856.91;3178218;27;20051;-52
2022/01/18 04:39:36;;;;;;;21.95;9.75;;;;;;;15.48;61.75;99862.25;3176322;27;20047;-51
2022/01/18 04:41:12;;;;;;;16.30;10.35;;;;;;;15.49;61.64;99853.22;3176271;27;20424;-55
2022/01/18 04:43:02;;;;;;;19.58;9.80;;;;;;;15.48;61.74;99867.59;3176354;27;20088;-52
2022/01/18 04:48:28;;;;;;;21.00;9.88;;;;;;;15.48;61.82;99873.78;3177847;27;20509;-53
2022/01/18 04:49:59;;;;;;;16.80;9.10;;;;;;;15.46;61.79;99873.09;3177873;27;20043;-52
2022/01/18 04:51:31;;;;;;;22.95;10.50;;;;;;;15.48;61.73;99878.28;3176845;27;20059;-52
2022/01/18 04:53:03;;;;;;;15.70;10.48;;;;;;;15.46;61.70;99870.44;3176405;27;20507;-50
2022/01/18 04:54:37;;;;;;;19.85;10.93;;;;;;;15.45;61.63;99868.72;3170074;27;20051;-48
2022/01/18 04:56:15;;;;;;;15.63;9.25;;;;;;;15.45;61.76;99871.41;3177047;27;20075;-53
2022/01/18 04:57:52;;;;;;;19.70;9.98;;;;;;;15.45;61.68;99871.41;3177228;27;20043;-51
2022/01/18 04:59:24;;;;;;;17.10;9.23;;;;;;;15.46;61.76;99872.25;3176450;27;20147;-49
2022/01/18 05:00:59;;;;;;;14.07;9.10;;;;;;;15.45;61.66;99868.72;3176929;27;20050;-50
2022/01/18 05:02:31;;;;;;;18.27;10.82;;;;;;;15.43;61.67;99873.38;3177475;27;20055;-52
2022/01/18 05:04:03;;;;;;;14.55;9.18;;;;;;;15.44;61.70;99871.59;3176262;27;20054;-53
2022/01/18 05:05:37;;;;;;;17.75;9.90;;;;;;;15.44;61.70;99867.06;3177204;27;20047;-53
2022/01/18 05:07:11;;;;;;;19.98;10.02;;;;;;;15.44;61.81;99868.91;3178202;27;20396;-52
2022/01/18 05:08:43;;;;;;;16.52;10.05;;;;;;;15.44;61.84;99871.59;3175337;27;20112;-49
2022/01/18 05:10:16;;;;;;;16.17;9.45;;;;;;;15.47;61.80;99871.28;3178141;27;20464;-50
2022/01/18 05:11:56;;;;;;;18.17;9.45;;;;;;;15.53;61.71;99876.84;3170434;27;20043;-52
2022/01/18 05:15:37;;;;;;;16.15;10.63;;;;;;;15.67;61.55;99883.47;3175417;27;20128;-51
2022/01/18 05:17:22;;;;;;;20.20;10.57;;;;;;;15.75;61.60;99885.41;3176303;27;20077;-51
2022/01/18 05:19:03;;;;;;;15.40;8.40;;;;;;;15.80;61.45;99891.97;3177813;27;20077;-48
2022/01/18 05:20:55;;;;;;;15.65;9.00;;;;;;;15.86;61.20;99882.50;3175826;27;20104;-50
2022/01/18 05:24:30;;;;;;;15.48;8.55;;;;;;;16.00;61.07;99887.28;3143016;28;20057;-52
2022/01/18 05:26:02;;;;;;;16.65;8.43;;;;;;;16.05;61.00;99886.81;3143244;27;21040;-50
2022/01/18 05:27:35;;;;;;;16.67;10.05;;;;;;;16.10;61.06;99884.50;3174795;27;20043;-50
2022/01/18 05:29:07;;;;;;;16.25;9.20;;;;;;;16.14;60.90;99888.56;3177036;27;23473;-53
2022/01/18 05:30:40;;;;;;;20.83;9.00;;;;;;;16.18;60.93;99879.19;3177088;27;20050;-51
2022/01/18 05:32:12;;;;;;;14.85;9.10;;;;;;;16.23;60.81;99878.72;3177095;27;20047;-48
2022/01/18 05:33:46;;;;;;;19.98;10.32;;;;;;;16.25;60.80;99888.28;3177596;27;20074;-50
2022/01/18 05:35:19;;;;;;;16.45;9.70;;;;;;;16.28;60.60;99882.63;3173925;27;20058;-49
2022/01/18 05:36:51;;;;;;;15.18;8.80;;;;;;;16.33;60.73;99881.31;3177446;27;20074;-51
2022/01/18 05:38:23;;;;;;;13.90;8.98;;;;;;;16.34;60.58;99886.50;3177299;27;20039;-50
2022/01/18 05:39:55;;;;;;;13.88;8.52;;;;;;;16.38;60.63;99892.38;3175854;27;20058;-51
2022/01/18 05:41:27;;;;;;;17.63;9.45;;;;;;;16.40;60.56;99888.53;3177000;27;20100;-49
2022/01/18 05:43:00;;;;;;;15.57;8.45;;;;;;;16.42;60.49;99886.53;3176405;27;20040;-52
2022/01/18 05:44:32;;;;;;;15.75;8.68;;;;;;;16.46;60.49;99887.06;3174963;27;20095;-51
2022/01/18 05:46:04;;;;;;;12.85;7.68;;;;;;;16.49;60.42;99884.94;3177897;27;20051;-50
2022/01/18 05:47:36;;;;;;;16.17;9.70;;;;;;;16.51;60.49;99888.25;3174556;27;20059;-53
2022/01/18 05:49:08;;;;;;;14.43;8.00;;;;;;;16.54;60.48;99881.75;3177319;27;20605;-51
2022/01/18 05:50:40;;;;;;;14.70;8.63;;;;;;;16.55;60.56;99883.44;3175144;27;20067;-52
2022/01/18 05:52:12;;;;;;;15.25;9.45;;;;;;;16.58;60.39;99888.47;3175871;27;20054;-49
2022/01/18 05:53:44;;;;;;;15.98;8.88;;;;;;;16.63;60.34;99893.34;3179004;27;20076;-50
2022/01/18 05:55:17;;;;;;;19.85;10.48;;;;;;;16.65;60.35;99897.53;3176543;27;20081;-52
2022/01/18 05:56:49;;;;;;;14.70;8.13;;;;;;;16.66;60.29;99899.25;3174632;27;20124;-53
2022/01/18 05:58:22;;;;;;;15.38;9.10;;;;;;;16.67;60.27;99895.56;3176812;27;20070;-52
2022/01/18 06:00:01;;;;;;;13.88;8.65;;;;;;;16.68;60.22;99899.06;3178329;27;20043;-51
2022/01/18 06:01:37;;;;;;;12.43;8.38;;;;;;;16.70;60.13;99900.59;3174646;27;20658;-50
2022/01/18 06:03:14;;;;;;;16.92;8.68;;;;;;;16.71;60.13;99899.56;3176346;27;20043;-51
2022/01/18 06:06:51;;;;;;;18.10;9.38;;;;;;;16.74;60.07;99901.97;3174417;27;20035;-51
2022/01/18 06:08:23;;;;;;;11.40;7.53;;;;;;;16.75;60.18;99902.78;3176737;27;20115;-50
2022/01/18 06:09:56;;;;;;;15.63;8.77;;;;;;;16.75;60.18;99908.97;3175652;27;20043;-52
2022/01/18 06:11:27;;;;;;;14.88;8.68;;;;;;;16.76;60.15;99909.81;3175516;27;21960;-49
2022/01/18 06:13:01;;;;;;;14.93;8.98;;;;;;;16.76;60.15;99917.84;3173873;27;20051;-50
2022/01/18 06:14:35;;;;;;;14.93;8.82;;;;;;;16.78;60.04;99912.38;3173592;27;20112;-54
2022/01/18 06:16:07;;;;;;;15.55;8.98;;;;;;;16.78;60.00;99925.78;3175947;27;20039;-54
2022/01/18 06:17:39;;;;;;;13.85;8.10;;;;;;;16.78;60.04;99917.75;3171136;27;20039;-51
2022/01/18 06:19:11;;;;;;;10.10;7.35;;;;;;;16.79;60.03;99924.75;3175829;27;20680;-54
2022/01/18 06:20:44;;;;;;;14.02;9.20;;;;;;;16.80;59.92;99926.44;3177715;27;20053;-53
2022/01/18 06:22:15;;;;;;;12.85;7.97;;;;;;;16.81;59.98;99933.50;3175408;27;20130;-50
2022/01/18 06:23:47;;;;;;;14.23;8.10;;;;;;;16.81;59.93;99934.31;3177418;27;20051;-48
2022/01/18 06:25:20;;;;;;;15.60;8.30;;;;;;;16.81;60.02;99941.53;3164197;27;20055;-54
2022/01/18 06:26:52;;;;;;;13.23;8.05;;;;;;;16.80;59.86;99937.16;3171002;27;20050;-52
2022/01/18 06:28:24;;;;;;;11.02;7.80;;;;;;;16.81;59.84;99945.03;3174534;27;20055;-52
2022/01/18 06:29:57;;;;;;;14.48;8.60;;;;;;;16.81;60.02;99944.22;3177521;27;20059;-49
2022/01/18 06:31:30;;;;;;;13.10;8.27;;;;;;;16.79;59.87;99943.53;3174597;27;20096;-52
2022/01/18 06:33:02;;;;;;;13.07;7.85;;;;;;;16.79;59.93;99948.88;3172416;27;20086;-51
2022/01/18 06:34:34;;;;;;;13.98;8.30;;;;;;;16.79;59.96;99947.03;3171093;27;20994;-51
2022/01/18 06:36:06;;;;;;;13.73;7.95;;;;;;;16.79;59.90;99944.34;3174297;27;20047;-52
2022/01/18 06:37:39;;;;;;;15.68;8.45;;;;;;;16.79;59.93;99951.56;3173336;27;20385;-54
2022/01/18 06:39:11;;;;;;;11.52;8.45;;;;;;;16.80;59.99;99956.78;3171535;27;20051;-52
2022/01/18 06:40:44;;;;;;;12.00;7.57;;;;;;;16.75;59.96;99954.53;3173079;27;20519;-50
2022/01/18 06:42:17;;;;;;;12.35;7.72;;;;;;;16.77;60.02;99951.75;3173947;27;20051;-51
2022/01/18 06:43:48;;;;;;;16.27;8.50;;;;;;;16.76;59.88;99955.38;3172200;27;20054;-48
2022/01/18 06:45:22;;;;;;;16.10;8.15;;;;;;;16.75;59.96;99962.56;3166576;27;20500;-54
2022/01/18 06:46:54;;;;;;;13.77;7.78;;;;;;;16.73;59.93;99961.03;3176549;27;20425;-51
2022/01/18 06:48:26;;;;;;;11.35;7.88;;;;;;;16.73;60.15;99961.03;3176664;27;20116;-54
2022/01/18 06:49:58;;;;;;;15.55;8.07;;;;;;;16.74;60.09;99965.41;3177392;27;20288;-51
2022/01/18 06:51:31;;;;;;;14.77;7.97;;;;;;;16.73;60.00;99955.69;3170765;27;20054;-50
2022/01/18 06:53:03;;;;;;;15.70;7.55;;;;;;;16.73;60.08;99969.91;3176363;27;20077;-53
2022/01/18 06:54:35;;;;;;;11.98;7.20;;;;;;;16.73;60.15;99956.53;3168483;27;20051;-54
2022/01/18 06:56:07;;;;;;;14.25;8.85;;;;;;;16.77;60.06;99965.13;3176634;27;20074;-49
2022/01/18 06:57:38;;;;;;;13.68;7.93;;;;;;;16.77;60.05;99964.28;3170345;27;20071;-53
2022/01/18 06:59:10;;;;;;;11.85;7.70;;;;;;;16.80;60.03;99971.97;3173880;27;20043;-50
2022/01/18 07:00:44;;;;;;;11.60;7.20;;;;;;;16.81;60.06;99961.13;3169930;27;20047;-51
2022/01/18 07:02:16;;;;;;;12.13;7.07;;;;;;;16.83;60.15;99966.34;3175875;27;20043;-53
2022/01/18 07:03:48;;;;;;;12.68;7.78;;;;;;;16.84;59.98;99957.28;3177230;27;20066;-49
2022/01/18 07:05:20;;;;;;;13.02;7.47;;;;;;;16.83;60.00;99959.13;3136618;27;20081;-53
2022/01/18 07:06:52;;;;;;;13.00;8.05;;;;;;;16.85;59.97;99951.75;3171266;27;20082;-51
2022/01/18 07:08:24;;;;;;;14.88;8.13;;;;;;;16.85;59.92;99958.94;3178900;27;20058;-52
2022/01/18 07:09:56;;;;;;;12.88;7.50;;;;;;;16.87;59.87;99967.69;3180019;27;20050;-52
2022/01/18 07:11:28;;;;;;;13.35;8.48;;;;;;;16.88;59.95;99972.91;3176817;27;21048;-51
2022/01/18 07:13:01;;;;;;;13.55;8.02;;;;;;;16.89;59.85;99968.38;3179285;27;20047;-50
2022/01/18 07:14:32;;;;;;;12.60;7.53;;;;;;;16.88;60.08;99972.91;3177883;27;20051;-55
2022/01/18 07:16:06;;;;;;;11.13;7.63;;;;;;;16.89;59.85;99974.56;3178298;27;20092;-54
2022/01/18 07:17:40;;;;;;;12.38;7.53;;;;;;;16.88;59.90;99977.38;3168381;27;20088;-51
2022/01/18 07:19:12;;;;;;;10.90;7.35;;;;;;;16.90;59.92;99983.44;3171274;27;20057;-54
2022/01/18 07:20:45;;;;;;;11.32;7.38;;;;;;;16.90;59.94;99986.13;3175676;27;20043;-54
2022/01/18 07:22:17;;;;;;;10.40;6.90;;;;;;;16.89;59.82;99979.94;3172223;27;20138;-54
2022/01/18 07:23:51;;;;;;;11.18;7.28;;;;;;;16.88;59.88;99980.94;3174410;27;20039;-54
2022/01/18 07:25:25;;;;;;;14.02;7.90;;;;;;;16.89;59.86;99989.81;3168676;27;20066;-52
2022/01/18 07:26:57;;;;;;;13.80;7.45;;;;;;;16.88;59.90;99988.09;3166565;27;20046;-53
2022/01/18 07:28:29;;;;;;;10.63;6.97;;;;;;;16.88;60.08;99990.78;3171753;27;20055;-53
2022/01/18 07:30:00;;;;;;;12.75;7.90;;;;;;;16.87;59.86;99984.59;3172142;27;20043;-54
2022/01/18 07:31:34;;;;;;;12.30;7.00;;;;;;;16.87;59.94;99987.28;3172930;27;20043;-54
2022/01/18 07:33:06;;;;;;;12.10;6.78;;;;;;;16.87;59.99;99998.00;3172110;27;20043;-53
2022/01/18 07:34:41;;;;;;;13.00;8.13;;;;;;;16.88;59.81;99996.16;3174083;27;20051;-51
2022/01/18 07:36:13;;;;;;;12.05;7.47;;;;;;;16.87;59.87;99999.84;3173809;27;20051;-54
2022/01/18 07:37:45;;;;;;;10.13;6.30;;;;;;;16.87;59.87;99999.84;3167774;27;20097;-51
2022/01/18 07:39:16;;;;;;;11.00;7.13;;;;;;;16.85;60.00;99994.63;3168603;27;20051;-50
2022/01/18 07:40:53;;;;;;;13.43;7.25;;;;;;;16.83;60.01;99991.28;3172615;27;20099;-52
2022/01/18 07:42:25;;;;;;;14.15;6.97;;;;;;;16.83;60.03;99999.31;3173237;27;20071;-52
2022/01/18 07:43:57;;;;;;;10.75;6.15;;;;;;;16.83;59.92;99993.13;3169313;27;20052;-51
2022/01/18 07:45:29;;;;;;;11.40;7.50;;;;;;;16.83;60.01;99998.50;3175342;27;20059;-53
2022/01/18 07:47:03;;;;;;;10.50;6.47;;;;;;;16.81;59.98;100000.47;3173311;27;20059;-54
2022/01/18 07:48:35;;;;;;;10.20;6.53;;;;;;;16.79;60.09;99997.13;3177812;27;20535;-53
2022/01/18 07:50:08;;;;;;;11.48;7.20;;;;;;;16.79;60.10;100002.47;3173867;27;20521;-53
2022/01/18 07:51:40;;;;;;;12.43;7.43;;;;;;;16.77;60.03;100004.47;3170231;27;20242;-53
2022/01/18 07:53:11;;;;;;;10.90;7.30;;;;;;;16.77;60.09;100004.47;3170790;27;20131;-53
2022/01/18 07:54:43;;;;;;;11.68;6.85;;;;;;;16.75;60.05;100005.44;3169696;27;20043;-53
2022/01/18 07:56:15;;;;;;;10.75;6.82;;;;;;;16.74;60.15;100000.22;3175834;27;20118;-54
2022/01/18 07:57:47;;;;;;;11.63;7.35;;;;;;;16.72;60.21;100005.75;3171013;27;20101;-54
2022/01/18 07:59:20;;;;;;;10.60;6.05;;;;;;;16.72;60.25;100005.75;3169459;27;20043;-52
2022/01/18 08:00:53;;;;;;;10.77;6.95;;;;;;;16.72;60.19;100021.00;3173499;27;20158;-54
2022/01/18 08:02:27;;;;;;;12.98;7.65;;;;;;;16.69;60.25;100016.78;3170184;27;20092;-54
2022/01/18 08:03:58;;;;;;;10.25;6.63;;;;;;;16.69;60.17;100016.78;3170960;27;20062;-53
2022/01/18 08:05:30;;;;;;;13.18;7.03;;;;;;;16.68;60.30;100016.94;3171964;27;20050;-53
2022/01/18 08:07:02;;;;;;;11.55;6.70;;;;;;;16.67;60.30;100024.13;3173041;27;20059;-54
2022/01/18 08:08:37;;;;;;;11.68;6.93;;;;;;;16.66;60.33;100027.81;3170079;27;20063;-52
2022/01/18 08:10:11;;;;;;;9.63;6.20;;;;;;;16.65;60.26;100026.13;3171486;27;20047;-54
2022/01/18 08:11:43;;;;;;;10.02;7.00;;;;;;;16.64;60.42;100031.66;3174436;27;20047;-52
2022/01/18 08:13:15;;;;;;;11.20;7.28;;;;;;;16.64;60.28;100040.53;3173640;27;20047;-53
2022/01/18 08:14:49;;;;;;;12.02;6.40;;;;;;;16.62;60.53;100031.78;3175011;27;20046;-54
2022/01/18 08:16:45;;;;;;;9.60;6.03;;;;;;;16.61;60.38;100040.84;3171959;27;20092;-52
2022/01/18 08:18:17;;;;;;;9.85;6.15;;;;;;;16.59;60.51;100033.97;3169956;27;20055;-54